createdAt,value
2018-11-04T00:01:00.163Z,9.93
2018-11-04T00:03:27.719Z,8.70
2018-11-04T00:05:55.375Z,8.28
2018-11-04T00:08:23.046Z,10.53
2018-11-04T00:10:50.756Z,9.65
2018-11-04T00:13:18.964Z,8.95
2018-11-04T00:15:46.269Z,8.20
2018-11-04T00:18:13.978Z,8.10
2018-11-04T00:20:41.666Z,7.87
2018-11-04T00:23:09.637Z,8.35
2018-11-04T00:25:37.705Z,8.05
2018-11-04T00:28:05.170Z,11.40
2018-11-04T00:30:32.491Z,8.18
2018-11-04T00:32:59.977Z,9.40
2018-11-04T00:35:27.377Z,8.85
2018-11-04T00:37:55.057Z,10.33
2018-11-04T00:40:22.781Z,9.50
2018-11-04T00:42:50.160Z,9.00
2018-11-04T00:45:17.789Z,10.38
2018-11-04T00:47:45.861Z,12.45
2018-11-04T00:50:14.460Z,8.55
2018-11-04T00:52:42.510Z,9.20
2018-11-04T00:55:11.202Z,7.83
2018-11-04T00:57:39.501Z,9.88
2018-11-04T01:00:09.068Z,9.00
2018-11-04T01:02:37.044Z,11.40
2018-11-04T01:05:05.636Z,8.70
2018-11-04T01:07:33.047Z,14.03
2018-11-04T01:10:00.753Z,10.10
2018-11-04T01:12:28.723Z,10.50
2018-11-04T01:14:56.490Z,10.25
2018-11-04T01:17:23.894Z,9.83
2018-11-04T01:19:51.248Z,11.93
2018-11-04T01:22:19.272Z,8.53
2018-11-04T01:24:47.148Z,8.38
2018-11-04T01:27:14.513Z,7.17
2018-11-04T01:29:41.965Z,8.60
2018-11-04T01:32:09.920Z,9.75
2018-11-04T01:34:37.260Z,18.80
2018-11-04T01:37:05.246Z,14.43
2018-11-04T01:39:32.569Z,14.20
2018-11-04T01:42:00.352Z,13.38
2018-11-04T01:44:27.664Z,12.03
2018-11-04T01:46:55.652Z,10.13
2018-11-04T01:49:23.286Z,8.00
2018-11-04T01:51:50.981Z,15.75
2018-11-04T01:54:18.573Z,8.93
2018-11-04T01:56:45.904Z,8.75
2018-11-04T01:59:13.896Z,15.60
2018-11-04T02:01:41.565Z,13.28
2018-11-04T02:04:09.766Z,9.20
2018-11-04T02:06:37.601Z,10.25
2018-11-04T02:09:07.521Z,12.58
2018-11-04T02:11:34.941Z,8.50
2018-11-04T02:14:02.841Z,9.75
2018-11-04T02:16:30.258Z,9.43
2018-11-04T02:18:58.009Z,10.58
2018-11-04T02:21:25.727Z,9.40
2018-11-04T02:23:53.271Z,8.78
2018-11-04T02:26:21.266Z,10.88
2018-11-04T02:28:49.225Z,11.90
2018-11-04T02:31:17.196Z,9.10
2018-11-04T02:33:44.858Z,11.00
2018-11-04T02:36:12.792Z,9.03
2018-11-04T02:38:40.417Z,11.60
2018-11-04T02:41:08.646Z,10.58
2018-11-04T02:43:36.313Z,8.85
2018-11-04T02:46:03.733Z,11.05
2018-11-04T02:48:31.134Z,11.85
2018-11-04T02:50:58.511Z,12.00
2018-11-04T02:53:25.858Z,11.75
2018-11-04T02:55:53.497Z,14.18
2018-11-04T02:58:22.192Z,11.28
2018-11-04T03:00:49.591Z,14.03
2018-11-04T03:03:17.219Z,12.70
2018-11-04T03:05:44.597Z,15.65
2018-11-04T03:08:12.243Z,12.45
2018-11-04T03:10:39.566Z,14.38
2018-11-04T03:13:07.211Z,14.47
2018-11-04T03:15:34.819Z,13.65
2018-11-04T03:18:02.494Z,14.38
2018-11-04T03:20:29.869Z,15.37
2018-11-04T03:22:57.467Z,14.43
2018-11-04T03:25:25.162Z,18.27
2018-11-04T03:27:53.228Z,13.60
2018-11-04T03:30:20.626Z,18.00
2018-11-04T03:32:48.291Z,14.10
2018-11-04T03:35:16.651Z,15.10
2018-11-04T03:37:44.047Z,12.03
2018-11-04T03:40:13.006Z,12.78
2018-11-04T03:42:41.105Z,13.78
2018-11-04T03:45:09.221Z,11.40
2018-11-04T03:47:36.940Z,11.00
2018-11-04T03:50:05.172Z,10.72
2018-11-04T03:52:32.826Z,11.97
2018-11-04T03:55:00.688Z,10.28
2018-11-04T03:57:28.358Z,14.15
2018-11-04T03:59:55.762Z,9.75
2018-11-04T04:02:23.665Z,12.20
2018-11-04T04:04:51.364Z,9.10
2018-11-04T04:07:19.540Z,15.43
2018-11-04T04:09:47.299Z,11.90
2018-11-04T04:12:15.035Z,11.48
2018-11-04T04:14:43.115Z,10.63
2018-11-04T04:17:11.094Z,10.53
2018-11-04T04:19:38.733Z,11.68
2018-11-04T04:22:06.127Z,12.47
2018-11-04T04:24:33.754Z,12.55
2018-11-04T04:27:01.131Z,12.00
2018-11-04T04:29:28.777Z,12.60
2018-11-04T04:31:56.870Z,14.67
2018-11-04T04:34:24.314Z,11.90
2018-11-04T04:36:51.665Z,12.28
2018-11-04T04:39:19.030Z,12.35
2018-11-04T04:41:46.600Z,11.88
2018-11-04T04:44:13.946Z,11.35
2018-11-04T04:46:41.329Z,9.65
2018-11-04T04:49:08.681Z,10.00
2018-11-04T04:51:36.412Z,9.45
2018-11-04T04:54:04.483Z,10.78
2018-11-04T04:56:31.783Z,11.97
2018-11-04T04:58:59.408Z,10.55
2018-11-04T05:01:27.079Z,11.53
2018-11-04T05:03:54.467Z,11.18
2018-11-04T05:06:22.138Z,10.40
2018-11-04T05:08:50.631Z,10.40
2018-11-04T05:11:18.367Z,12.58
2018-11-04T05:13:46.451Z,12.88
2018-11-04T05:16:14.372Z,14.00
2018-11-04T05:18:41.940Z,11.75
2018-11-04T05:21:09.683Z,14.15
2018-11-04T05:23:37.032Z,11.73
2018-11-04T05:26:04.958Z,11.87
2018-11-04T05:28:32.622Z,13.15
2018-11-04T05:31:00.333Z,14.38
2018-11-04T05:33:27.974Z,14.73
2018-11-04T05:35:55.444Z,14.38
2018-11-04T05:38:22.930Z,12.15
2018-11-04T05:40:50.300Z,12.78
2018-11-04T05:43:17.657Z,11.65
2018-11-04T05:45:45.030Z,14.50
2018-11-04T05:48:13.222Z,17.12
2018-11-04T05:50:40.562Z,14.80
2018-11-04T05:53:07.961Z,19.48
2018-11-04T05:55:35.309Z,14.83
2018-11-04T05:58:03.268Z,18.00
2018-11-04T06:00:30.774Z,15.20
2018-11-04T06:02:58.677Z,16.00
2018-11-04T06:05:26.301Z,17.52
2018-11-04T06:07:55.726Z,15.75
2018-11-04T06:10:23.323Z,17.50
2018-11-04T06:12:50.991Z,20.77
2018-11-04T06:15:18.728Z,22.30
2018-11-04T06:17:46.347Z,20.17
2018-11-04T06:20:14.083Z,20.17
2018-11-04T06:22:42.918Z,20.32
2018-11-04T06:25:10.635Z,20.82
2018-11-04T06:27:38.059Z,22.93
2018-11-04T06:30:07.106Z,21.60
2018-11-04T06:32:34.977Z,24.43
2018-11-04T06:35:02.504Z,22.55
2018-11-04T06:37:30.240Z,30.10
2018-11-04T06:39:58.325Z,29.18
2018-11-04T06:42:26.314Z,31.70
2018-11-04T06:44:54.525Z,29.23
2018-11-04T06:47:22.198Z,31.97
2018-11-04T06:49:50.158Z,33.50
2018-11-04T06:52:17.614Z,33.48
2018-11-04T06:54:45.209Z,32.83
2018-11-04T06:57:12.899Z,32.67
2018-11-04T06:59:40.997Z,36.13
2018-11-04T07:02:08.777Z,33.30
2018-11-04T07:04:36.145Z,30.85
2018-11-04T07:07:04.086Z,31.52
2018-11-04T07:09:31.767Z,33.70
2018-11-04T07:11:59.425Z,33.30
2018-11-04T07:14:27.350Z,32.78
2018-11-04T07:16:55.265Z,31.93
2018-11-04T07:19:22.662Z,33.48
2018-11-04T07:21:50.611Z,33.50
2018-11-04T07:24:18.365Z,35.23
2018-11-04T07:26:45.700Z,36.15
2018-11-04T07:29:13.432Z,33.98
2018-11-04T07:31:41.084Z,36.98
2018-11-04T07:34:08.858Z,36.58
2018-11-04T07:36:36.222Z,36.42
2018-11-04T07:39:05.150Z,35.58
2018-11-04T07:41:32.465Z,33.85
2018-11-04T07:43:59.901Z,38.63
2018-11-04T07:46:27.556Z,38.88
2018-11-04T07:48:55.719Z,37.27
2018-11-04T07:51:23.151Z,37.55
2018-11-04T07:53:51.023Z,38.23
2018-11-04T07:56:19.412Z,44.53
2018-11-04T07:58:47.343Z,38.48
2018-11-04T08:01:14.690Z,45.10
2018-11-04T08:03:42.253Z,44.98
2018-11-04T08:06:09.657Z,44.13
2018-11-04T08:08:37.033Z,45.10
2018-11-04T08:11:04.478Z,45.48
2018-11-04T08:13:32.612Z,45.60
2018-11-04T08:16:00.302Z,48.50
2018-11-04T08:18:27.656Z,47.78
2018-11-04T08:20:55.066Z,50.60
2018-11-04T08:23:22.790Z,48.57
2018-11-04T08:25:50.171Z,52.85
2018-11-04T08:28:17.850Z,48.10
2018-11-04T08:30:46.032Z,64.72
2018-11-04T08:33:13.406Z,62.95
2018-11-04T08:35:40.829Z,56.30
2018-11-04T08:38:08.205Z,53.38
2018-11-04T08:40:35.612Z,51.40
2018-11-04T08:43:03.356Z,54.38
2018-11-04T08:45:31.016Z,53.87
2018-11-04T08:47:58.398Z,57.30
2018-11-04T08:50:26.441Z,59.10
2018-11-04T08:52:53.836Z,59.15
2018-11-04T08:55:21.486Z,55.03
2018-11-04T08:57:48.848Z,56.02
2018-11-04T09:00:16.502Z,61.13
2018-11-04T09:02:44.698Z,55.73
2018-11-04T09:05:12.621Z,61.88
2018-11-04T09:07:40.041Z,63.33
2018-11-04T09:10:11.836Z,58.47
2018-11-04T09:12:39.222Z,59.70
2018-11-04T09:15:07.513Z,54.47
2018-11-04T09:17:35.308Z,57.10
2018-11-04T09:20:02.794Z,59.53
2018-11-04T09:22:30.469Z,54.25
2018-11-04T09:24:57.818Z,53.93
2018-11-04T09:27:25.514Z,53.73
2018-11-04T09:29:53.455Z,55.70
2018-11-04T09:32:20.843Z,52.05
2018-11-04T09:34:48.610Z,54.50
2018-11-04T09:37:17.565Z,55.08
2018-11-04T09:39:45.528Z,52.70
2018-11-04T09:42:13.636Z,53.63
2018-11-04T09:44:41.879Z,53.02
2018-11-04T09:47:09.241Z,52.58
2018-11-04T09:49:36.888Z,49.63
2018-11-04T09:52:04.558Z,54.83
2018-11-04T09:54:33.055Z,48.70
2018-11-04T09:57:00.783Z,49.42
2018-11-04T09:59:28.113Z,52.78
2018-11-04T10:01:55.692Z,49.58
2018-11-04T10:04:23.482Z,50.52
2018-11-04T10:06:53.401Z,50.90
2018-11-04T10:09:21.930Z,49.20
2018-11-04T10:11:49.330Z,50.25
2018-11-04T10:14:17.307Z,51.40
2018-11-04T10:16:44.717Z,48.68
2018-11-04T10:19:12.226Z,52.78
2018-11-04T10:21:39.800Z,54.67
2018-11-04T10:24:07.467Z,51.60
2018-11-04T10:26:35.343Z,48.45
2018-11-04T10:29:03.253Z,53.05
2018-11-04T10:31:31.760Z,51.07
2018-11-04T10:34:00.001Z,54.53
2018-11-04T10:36:27.637Z,50.98
2018-11-04T10:38:55.025Z,48.68
2018-11-04T10:41:22.381Z,45.75
2018-11-04T10:43:49.800Z,49.30
2018-11-04T10:46:17.237Z,47.88
2018-11-04T10:48:44.976Z,49.03
2018-11-04T10:51:12.387Z,50.23
2018-11-04T10:53:40.213Z,51.37
2018-11-04T10:56:08.181Z,50.20
2018-11-04T10:58:35.867Z,49.15
2018-11-04T11:01:06.386Z,48.33
2018-11-04T11:03:34.549Z,50.70
2018-11-04T11:06:02.208Z,48.98
2018-11-04T11:08:29.949Z,49.35
2018-11-04T11:10:57.373Z,47.90
2018-11-04T11:13:25.087Z,52.35
2018-11-04T11:15:52.455Z,50.38
2018-11-04T11:18:19.852Z,52.78
2018-11-04T11:20:47.893Z,50.90
2018-11-04T11:23:15.550Z,51.73
2018-11-04T11:25:42.923Z,48.90
2018-11-04T11:28:10.334Z,52.53
2018-11-04T11:30:38.122Z,54.50
2018-11-04T11:33:05.716Z,55.57
2018-11-04T11:35:33.755Z,53.75
2018-11-04T11:38:01.795Z,49.67
2018-11-04T11:40:29.160Z,52.93
2018-11-04T11:42:56.476Z,224.47
2018-11-04T11:45:24.092Z,92.72
2018-11-04T11:47:51.513Z,56.70
2018-11-04T11:50:18.864Z,59.18
2018-11-04T11:52:46.542Z,57.93
2018-11-04T11:55:14.373Z,55.12
2018-11-04T11:57:42.112Z,58.38
2018-11-04T12:00:10.602Z,59.10
2018-11-04T12:02:38.702Z,53.83
2018-11-04T12:05:06.085Z,52.60
2018-11-04T12:07:33.670Z,53.98
2018-11-04T12:10:02.313Z,52.75
2018-11-04T12:12:29.905Z,51.45
2018-11-04T12:14:58.473Z,50.05
2018-11-04T12:17:25.868Z,53.90
2018-11-04T12:19:53.595Z,46.80
2018-11-04T12:22:21.612Z,47.27
2018-11-04T12:24:49.229Z,48.78
2018-11-04T12:27:16.541Z,50.07
2018-11-04T12:29:43.882Z,45.12
2018-11-04T12:32:12.056Z,46.30
2018-11-04T12:34:40.030Z,44.15
2018-11-04T12:37:07.695Z,45.50
2018-11-04T12:39:35.465Z,43.57
2018-11-04T12:42:03.199Z,44.48
2018-11-04T12:44:31.473Z,45.05
2018-11-04T12:46:59.101Z,49.03
2018-11-04T12:49:26.508Z,44.03
2018-11-04T12:51:54.139Z,43.87
2018-11-04T12:54:21.505Z,44.70
2018-11-04T12:56:49.313Z,44.50
2018-11-04T12:59:16.722Z,41.37
2018-11-04T13:01:44.100Z,40.03
2018-11-04T13:04:12.067Z,44.55
2018-11-04T13:06:39.405Z,43.23
2018-11-04T13:09:07.413Z,44.42
2018-11-04T13:11:35.238Z,48.08
2018-11-04T13:14:02.544Z,50.23
2018-11-04T13:16:30.480Z,52.17
2018-11-04T13:18:57.918Z,51.40
2018-11-04T13:21:25.541Z,52.40
2018-11-04T13:23:52.617Z,48.48
2018-11-04T13:26:20.001Z,48.60
2018-11-04T13:28:47.426Z,52.93
2018-11-04T13:31:15.366Z,49.00
2018-11-04T13:33:42.782Z,49.53
2018-11-04T13:36:10.246Z,50.38
2018-11-04T13:38:37.561Z,49.08
2018-11-04T13:41:05.069Z,52.90
2018-11-04T13:43:32.493Z,49.45
2018-11-04T13:46:00.278Z,50.23
2018-11-04T13:48:27.907Z,53.35
2018-11-04T13:50:55.224Z,50.20
2018-11-04T13:53:22.849Z,51.23
2018-11-04T13:55:50.531Z,53.25
2018-11-04T14:00:48.601Z,52.53
2018-11-04T14:03:16.237Z,56.15
2018-11-04T14:05:43.589Z,57.93
2018-11-04T14:08:10.969Z,56.77
2018-11-04T14:10:38.945Z,56.40
2018-11-04T14:13:06.641Z,58.63
2018-11-04T14:15:34.343Z,57.50
2018-11-04T14:18:01.716Z,57.93
2018-11-04T14:20:29.117Z,62.70
2018-11-04T14:22:56.466Z,61.07
2018-11-04T14:25:24.526Z,53.35
2018-11-04T14:27:52.090Z,55.67
2018-11-04T14:30:19.476Z,53.23
2018-11-04T14:32:47.194Z,59.70
2018-11-04T14:35:14.826Z,57.50
2018-11-04T14:37:42.841Z,60.78
2018-11-04T14:40:11.929Z,56.80
2018-11-04T14:42:40.506Z,55.33
2018-11-04T14:45:08.249Z,59.42
2018-11-04T14:47:36.239Z,53.05
2018-11-04T14:50:03.812Z,63.42
2018-11-04T14:52:31.469Z,52.98
2018-11-04T14:54:58.866Z,59.38
2018-11-04T14:57:26.335Z,60.88
2018-11-04T14:59:54.008Z,60.28
2018-11-04T15:02:21.436Z,61.18
2018-11-04T15:04:48.816Z,56.95
2018-11-04T15:07:16.229Z,56.60
2018-11-04T15:09:43.619Z,60.67
2018-11-04T15:12:11.445Z,65.08
2018-11-04T15:14:39.026Z,58.80
2018-11-04T15:17:06.435Z,57.95
2018-11-04T15:19:33.855Z,57.67
2018-11-04T15:22:02.018Z,55.23
2018-11-04T15:24:29.509Z,53.70
2018-11-04T15:26:57.463Z,54.50
2018-11-04T15:29:24.860Z,53.75
2018-11-04T15:31:52.512Z,55.60
2018-11-04T15:34:19.929Z,52.58
2018-11-04T15:36:47.538Z,56.33
2018-11-04T15:39:15.193Z,54.77
2018-11-04T15:41:42.569Z,56.25
2018-11-04T15:44:11.100Z,52.70
2018-11-04T15:46:39.718Z,53.92
2018-11-04T15:49:07.722Z,55.65
2018-11-04T15:51:35.405Z,56.13
2018-11-04T15:54:02.871Z,54.73
2018-11-04T15:56:30.466Z,55.60
2018-11-04T15:58:58.157Z,53.92
2018-11-04T16:01:25.540Z,58.85
2018-11-04T16:03:53.161Z,52.62
2018-11-04T16:06:20.820Z,57.75
2018-11-04T16:08:48.234Z,63.50
2018-11-04T16:11:15.598Z,59.08
2018-11-04T16:13:43.009Z,56.42
2018-11-04T16:16:10.646Z,60.23
2018-11-04T16:18:38.079Z,58.30
2018-11-04T16:21:05.985Z,58.58
2018-11-04T16:23:33.350Z,59.13
2018-11-04T16:26:00.755Z,61.75
2018-11-04T16:28:28.138Z,59.20
2018-11-04T16:30:55.540Z,61.02
2018-11-04T16:33:23.234Z,59.55
2018-11-04T16:35:50.617Z,58.65
2018-11-04T16:38:18.324Z,65.85
2018-11-04T16:40:46.059Z,64.12
2018-11-04T16:43:13.387Z,66.30
2018-11-04T16:45:40.801Z,63.23
2018-11-04T16:48:08.198Z,63.87
2018-11-04T16:50:35.884Z,65.70
2018-11-04T16:53:03.287Z,66.95
2018-11-04T16:55:30.628Z,66.82
2018-11-04T16:57:58.044Z,67.50
2018-11-04T17:00:25.406Z,67.43
2018-11-04T17:02:52.726Z,70.03
2018-11-04T17:05:20.383Z,69.05
2018-11-04T17:07:47.767Z,67.70
2018-11-04T17:10:15.171Z,65.92
2018-11-04T17:12:42.567Z,72.95
2018-11-04T17:15:11.678Z,70.07
2018-11-04T17:17:40.271Z,71.83
2018-11-04T17:20:16.776Z,87.78
2018-11-04T17:22:45.100Z,74.30
2018-11-04T17:25:12.839Z,70.10
2018-11-04T17:27:40.428Z,70.70
2018-11-04T17:30:08.878Z,71.97
2018-11-04T17:32:36.539Z,70.50
2018-11-04T17:35:04.194Z,71.60
2018-11-04T17:37:31.574Z,67.30
2018-11-04T17:39:58.990Z,67.75
2018-11-04T17:42:26.345Z,70.47
2018-11-04T17:44:54.071Z,66.02
2018-11-04T17:47:21.708Z,67.85
2018-11-04T17:49:50.014Z,66.80
2018-11-04T17:52:17.417Z,109.17
2018-11-04T17:54:44.853Z,70.97
2018-11-04T17:57:14.072Z,66.82
2018-11-04T17:59:42.063Z,68.15
2018-11-04T18:02:09.721Z,68.50
2018-11-04T18:04:37.336Z,66.40
2018-11-04T18:07:05.132Z,65.90
2018-11-04T18:09:32.539Z,68.12
2018-11-04T18:12:00.170Z,64.65
2018-11-04T18:14:27.594Z,61.70
2018-11-04T18:16:56.872Z,69.40
2018-11-04T18:19:24.800Z,63.65
2018-11-04T18:21:52.141Z,66.62
2018-11-04T18:24:19.509Z,60.63
2018-11-04T18:26:47.225Z,61.30
2018-11-04T18:29:14.585Z,62.05
2018-11-04T18:31:42.789Z,64.20
2018-11-04T18:34:10.308Z,63.50
2018-11-04T18:36:37.976Z,66.30
2018-11-04T18:39:06.713Z,62.98
2018-11-04T18:41:34.795Z,65.73
2018-11-04T18:44:02.472Z,65.42
2018-11-04T18:46:29.650Z,62.65
2018-11-04T18:48:57.604Z,62.30
2018-11-04T18:51:24.990Z,62.13
2018-11-04T18:53:52.626Z,62.98
2018-11-04T18:56:20.282Z,64.87
2018-11-04T18:58:47.917Z,59.55
2018-11-04T19:01:16.095Z,63.42
2018-11-04T19:03:43.725Z,63.10
2018-11-04T19:06:11.377Z,59.37
2018-11-04T19:08:38.754Z,59.90
2018-11-04T19:11:06.280Z,62.80
2018-11-04T19:13:34.146Z,59.88
2018-11-04T19:16:02.088Z,62.07
2018-11-04T19:18:29.515Z,61.20
2018-11-04T19:20:57.247Z,64.42
2018-11-04T19:23:25.300Z,62.62
2018-11-04T19:25:52.720Z,59.35
2018-11-04T19:28:20.716Z,62.07
2018-11-04T19:30:48.190Z,62.65
2018-11-04T19:33:15.565Z,60.85
2018-11-04T19:35:42.976Z,60.20
2018-11-04T19:38:10.695Z,61.42
2018-11-04T19:40:38.607Z,60.10
2018-11-04T19:43:06.354Z,66.35
2018-11-04T19:45:34.003Z,61.65
2018-11-04T19:48:01.470Z,62.40
2018-11-04T19:50:29.730Z,62.27
2018-11-04T19:52:57.445Z,61.42
2018-11-04T19:55:24.820Z,59.10
2018-11-04T19:57:52.262Z,56.28
2018-11-04T20:00:19.679Z,60.45
2018-11-04T20:02:47.128Z,62.43
2018-11-04T20:05:15.350Z,57.62
2018-11-04T20:07:42.820Z,56.92
2018-11-04T20:10:12.875Z,61.68
2018-11-04T20:12:45.593Z,57.27
2018-11-04T20:15:13.003Z,61.85
2018-11-04T20:17:40.446Z,57.75
2018-11-04T20:20:10.233Z,55.98
2018-11-04T20:22:37.610Z,59.42
2018-11-04T20:25:10.966Z,58.48
2018-11-04T20:27:38.362Z,62.27
2018-11-04T20:30:06.829Z,61.33
2018-11-04T20:32:40.456Z,60.78
2018-11-04T20:35:07.854Z,59.43
2018-11-04T20:37:35.420Z,56.85
2018-11-04T20:40:08.257Z,56.48
2018-11-04T20:42:35.896Z,59.75
2018-11-04T20:45:10.071Z,58.50
2018-11-04T20:47:43.094Z,59.33
2018-11-04T20:50:15.998Z,58.45
2018-11-04T20:52:43.403Z,57.80
2018-11-04T20:55:10.981Z,58.70
2018-11-04T20:57:40.053Z,59.98
2018-11-04T21:00:08.737Z,63.90
2018-11-04T21:02:36.723Z,63.45
2018-11-04T21:05:04.554Z,59.15
2018-11-04T21:07:31.982Z,57.10
2018-11-04T21:09:59.475Z,55.03
2018-11-04T21:12:26.740Z,55.70
2018-11-04T21:14:54.144Z,54.37
2018-11-04T21:17:21.844Z,58.30
2018-11-04T21:19:49.239Z,56.20
2018-11-04T21:22:16.652Z,60.55
2018-11-04T21:24:45.457Z,61.70
2018-11-04T21:27:13.165Z,59.05
2018-11-04T21:29:40.833Z,57.08
2018-11-04T21:32:07.973Z,57.78
2018-11-04T21:34:36.167Z,58.33
2018-11-04T21:37:04.634Z,60.48
2018-11-04T21:39:32.013Z,60.92
2018-11-04T21:41:59.407Z,58.05
2018-11-04T21:44:27.206Z,61.77
2018-11-04T21:46:54.998Z,57.30
2018-11-04T21:49:22.653Z,58.15
2018-11-04T21:51:49.993Z,56.80
2018-11-04T21:54:17.670Z,58.58
2018-11-04T21:56:45.074Z,56.25
2018-11-04T21:59:12.626Z,58.70
2018-11-04T22:01:39.976Z,54.60
2018-11-04T22:04:07.913Z,60.63
2018-11-04T22:06:35.237Z,56.63
2018-11-04T22:09:02.679Z,55.75
2018-11-04T22:11:30.891Z,59.88
2018-11-04T22:13:58.747Z,57.13
2018-11-04T22:16:26.240Z,62.90
2018-11-04T22:18:53.594Z,57.73
2018-11-04T22:21:21.444Z,59.93
2018-11-04T22:23:49.093Z,58.05
2018-11-04T22:26:16.769Z,63.75
2018-11-04T22:28:44.114Z,60.30
2018-11-04T22:31:11.943Z,56.13
2018-11-04T22:33:39.617Z,60.00
2018-11-04T22:36:07.033Z,63.42
2018-11-04T22:38:35.487Z,64.27
2018-11-04T22:41:03.758Z,62.95
2018-11-04T22:43:32.544Z,63.05
2018-11-04T22:45:59.952Z,61.95
2018-11-04T22:48:27.269Z,60.20
2018-11-04T22:50:54.998Z,60.92
2018-11-04T22:53:22.476Z,60.43
2018-11-04T22:55:50.093Z,58.83
2018-11-04T22:58:18.107Z,62.03
2018-11-04T23:00:46.654Z,64.22
2018-11-04T23:03:14.016Z,62.70
2018-11-04T23:05:41.989Z,62.85
2018-11-04T23:08:10.042Z,59.23
2018-11-04T23:10:37.410Z,62.05
2018-11-04T23:13:05.026Z,61.45
2018-11-04T23:15:32.447Z,58.95
2018-11-04T23:17:59.772Z,63.55
2018-11-04T23:20:27.262Z,61.17
2018-11-04T23:22:54.819Z,61.13
2018-11-04T23:25:22.505Z,65.28
2018-11-04T23:27:50.186Z,61.90
2018-11-04T23:30:18.896Z,57.93
2018-11-04T23:32:47.302Z,64.80
2018-11-04T23:35:14.993Z,65.30
2018-11-04T23:37:43.776Z,62.08
2018-11-04T23:40:11.749Z,62.25
2018-11-04T23:42:39.221Z,64.37
2018-11-04T23:45:07.705Z,64.58
2018-11-04T23:47:35.666Z,64.17
2018-11-04T23:50:03.281Z,64.72
2018-11-04T23:52:30.975Z,66.40
2018-11-04T23:54:59.631Z,65.47
2018-11-04T23:57:27.057Z,63.15
2018-11-04T23:59:54.446Z,65.75
